sensor_id;sensor_type;location;lat;lon;timestamp;P1;durP1;ratioP1;P2;durP2;ratioP2
25479;SDS011;13393;49.378;8.686;2023-01-04T00:00:46;8.23;;;5.07;;
25479;SDS011;13393;49.378;8.686;2023-01-04T00:03:12;5.97;;;5.07;;
25479;SDS011;13393;49.378;8.686;2023-01-04T00:05:39;6.50;;;5.22;;
25479;SDS011;13393;49.378;8.686;2023-01-04T00:08:05;6.80;;;5.28;;
25479;SDS011;13393;49.378;8.686;2023-01-04T00:12:58;7.15;;;5.65;;
25479;SDS011;13393;49.378;8.686;2023-01-04T00:15:25;10.85;;;5.80;;
25479;SDS011;13393;49.378;8.686;2023-01-04T00:17:52;9.30;;;5.88;;
25479;SDS011;13393;49.378;8.686;2023-01-04T00:20:18;7.80;;;5.35;;
25479;SDS011;13393;49.378;8.686;2023-01-04T00:22:44;6.10;;;4.72;;
25479;SDS011;13393;49.378;8.686;2023-01-04T00:25:11;7.97;;;5.50;;
25479;SDS011;13393;49.378;8.686;2023-01-04T00:27:37;8.52;;;5.15;;
25479;SDS011;13393;49.378;8.686;2023-01-04T00:30:04;5.18;;;4.68;;
25479;SDS011;13393;49.378;8.686;2023-01-04T00:32:32;8.13;;;5.88;;
25479;SDS011;13393;49.378;8.686;2023-01-04T00:34:58;7.80;;;5.40;;
25479;SDS011;13393;49.378;8.686;2023-01-04T00:37:25;6.68;;;5.05;;
25479;SDS011;13393;49.378;8.686;2023-01-04T00:39:51;8.02;;;5.13;;
25479;SDS011;13393;49.378;8.686;2023-01-04T00:42:17;6.25;;;4.47;;
25479;SDS011;13393;49.378;8.686;2023-01-04T00:44:44;6.93;;;4.40;;
25479;SDS011;13393;49.378;8.686;2023-01-04T00:47:10;6.13;;;5.03;;
25479;SDS011;13393;49.378;8.686;2023-01-04T00:49:38;6.15;;;5.03;;
25479;SDS011;13393;49.378;8.686;2023-01-04T00:52:04;6.70;;;4.78;;
25479;SDS011;13393;49.378;8.686;2023-01-04T00:54:30;6.05;;;4.47;;
25479;SDS011;13393;49.378;8.686;2023-01-04T00:56:57;6.50;;;4.38;;
25479;SDS011;13393;49.378;8.686;2023-01-04T00:59:23;5.95;;;4.65;;
25479;SDS011;13393;49.378;8.686;2023-01-04T01:01:50;7.53;;;4.28;;
25479;SDS011;13393;49.378;8.686;2023-01-04T01:04:17;7.57;;;4.93;;
25479;SDS011;13393;49.378;8.686;2023-01-04T01:06:45;8.38;;;4.85;;
25479;SDS011;13393;49.378;8.686;2023-01-04T01:09:12;6.07;;;4.47;;
25479;SDS011;13393;49.378;8.686;2023-01-04T01:11:38;7.30;;;4.60;;
25479;SDS011;13393;49.378;8.686;2023-01-04T01:14:05;6.88;;;4.90;;
25479;SDS011;13393;49.378;8.686;2023-01-04T01:16:31;4.70;;;4.20;;
25479;SDS011;13393;49.378;8.686;2023-01-04T01:18:58;6.70;;;4.60;;
25479;SDS011;13393;49.378;8.686;2023-01-04T01:21:25;9.80;;;5.03;;
25479;SDS011;13393;49.378;8.686;2023-01-04T01:23:54;6.00;;;4.80;;
25479;SDS011;13393;49.378;8.686;2023-01-04T01:26:21;7.30;;;4.68;;
25479;SDS011;13393;49.378;8.686;2023-01-04T01:28:48;5.75;;;5.05;;
25479;SDS011;13393;49.378;8.686;2023-01-04T01:31:16;7.82;;;4.78;;
25479;SDS011;13393;49.378;8.686;2023-01-04T01:33:44;7.60;;;4.78;;
25479;SDS011;13393;49.378;8.686;2023-01-04T01:36:11;10.07;;;4.93;;
25479;SDS011;13393;49.378;8.686;2023-01-04T01:38:38;8.00;;;5.45;;
25479;SDS011;13393;49.378;8.686;2023-01-04T01:41:06;7.60;;;5.78;;
25479;SDS011;13393;49.378;8.686;2023-01-04T01:43:46;8.13;;;5.57;;
25479;SDS011;13393;49.378;8.686;2023-01-04T01:46:14;7.05;;;4.70;;
25479;SDS011;13393;49.378;8.686;2023-01-04T01:48:42;8.27;;;5.53;;
25479;SDS011;13393;49.378;8.686;2023-01-04T01:51:08;8.18;;;5.90;;
25479;SDS011;13393;49.378;8.686;2023-01-04T01:53:37;8.43;;;5.57;;
25479;SDS011;13393;49.378;8.686;2023-01-04T01:56:08;7.85;;;6.47;;
25479;SDS011;13393;49.378;8.686;2023-01-04T01:58:36;7.43;;;5.80;;
25479;SDS011;13393;49.378;8.686;2023-01-04T02:01:04;7.07;;;5.43;;
25479;SDS011;13393;49.378;8.686;2023-01-04T02:03:32;8.60;;;6.15;;
25479;SDS011;13393;49.378;8.686;2023-01-04T02:06:00;10.25;;;6.95;;
25479;SDS011;13393;49.378;8.686;2023-01-04T02:08:27;8.52;;;6.43;;
25479;SDS011;13393;49.378;8.686;2023-01-04T02:10:55;8.75;;;6.28;;
25479;SDS011;13393;49.378;8.686;2023-01-04T02:13:23;11.50;;;6.95;;
25479;SDS011;13393;49.378;8.686;2023-01-04T02:16:11;8.65;;;6.22;;
25479;SDS011;13393;49.378;8.686;2023-01-04T02:18:41;8.75;;;6.50;;
25479;SDS011;13393;49.378;8.686;2023-01-04T02:21:10;8.02;;;6.35;;
25479;SDS011;13393;49.378;8.686;2023-01-04T02:23:51;10.75;;;6.80;;
25479;SDS011;13393;49.378;8.686;2023-01-04T02:31:59;8.85;;;7.05;;
25479;SDS011;13393;49.378;8.686;2023-01-04T02:34:28;9.30;;;6.70;;
25479;SDS011;13393;49.378;8.686;2023-01-04T02:36:57;8.32;;;6.88;;
25479;SDS011;13393;49.378;8.686;2023-01-04T02:39:28;10.65;;;7.15;;
25479;SDS011;13393;49.378;8.686;2023-01-04T02:41:56;7.75;;;6.28;;
25479;SDS011;13393;49.378;8.686;2023-01-04T02:44:26;11.65;;;6.90;;
25479;SDS011;13393;49.378;8.686;2023-01-04T02:47:13;9.07;;;6.90;;
25479;SDS011;13393;49.378;8.686;2023-01-04T02:49:41;9.07;;;6.55;;
25479;SDS011;13393;49.378;8.686;2023-01-04T02:52:24;8.70;;;6.90;;
25479;SDS011;13393;49.378;8.686;2023-01-04T02:54:52;11.35;;;7.18;;
25479;SDS011;13393;49.378;8.686;2023-01-04T02:58:03;8.52;;;6.32;;
25479;SDS011;13393;49.378;8.686;2023-01-04T03:00:32;8.57;;;7.00;;
25479;SDS011;13393;49.378;8.686;2023-01-04T03:03:27;9.02;;;6.32;;
25479;SDS011;13393;49.378;8.686;2023-01-04T03:06:11;12.50;;;6.55;;
25479;SDS011;13393;49.378;8.686;2023-01-04T03:08:42;8.30;;;6.22;;
25479;SDS011;13393;49.378;8.686;2023-01-04T03:11:11;10.10;;;7.82;;
25479;SDS011;13393;49.378;8.686;2023-01-04T03:13:51;10.10;;;7.82;;
25479;SDS011;13393;49.378;8.686;2023-01-04T03:16:19;10.80;;;7.88;;
25479;SDS011;13393;49.378;8.686;2023-01-04T03:18:49;10.95;;;7.55;;
25479;SDS011;13393;49.378;8.686;2023-01-04T03:21:16;10.23;;;7.57;;
25479;SDS011;13393;49.378;8.686;2023-01-04T03:23:44;10.40;;;8.18;;
25479;SDS011;13393;49.378;8.686;2023-01-04T03:29:14;8.68;;;7.05;;
25479;SDS011;13393;49.378;8.686;2023-01-04T03:32:01;12.27;;;9.93;;
25479;SDS011;13393;49.378;8.686;2023-01-04T03:34:48;10.30;;;8.73;;
25479;SDS011;13393;49.378;8.686;2023-01-04T03:37:34;13.82;;;11.32;;
25479;SDS011;13393;49.378;8.686;2023-01-04T03:40:07;13.60;;;11.50;;
25479;SDS011;13393;49.378;8.686;2023-01-04T03:42:56;10.63;;;8.73;;
25479;SDS011;13393;49.378;8.686;2023-01-04T03:45:42;13.40;;;10.57;;
25479;SDS011;13393;49.378;8.686;2023-01-04T03:48:28;17.20;;;11.40;;
25479;SDS011;13393;49.378;8.686;2023-01-04T03:50:59;13.35;;;10.57;;
25479;SDS011;13393;49.378;8.686;2023-01-04T03:53:27;12.70;;;9.75;;
25479;SDS011;13393;49.378;8.686;2023-01-04T03:55:53;13.43;;;10.02;;
25479;SDS011;13393;49.378;8.686;2023-01-04T03:58:21;12.85;;;8.52;;
25479;SDS011;13393;49.378;8.686;2023-01-04T04:00:47;10.43;;;8.65;;
25479;SDS011;13393;49.378;8.686;2023-01-04T04:03:14;12.60;;;10.15;;
25479;SDS011;13393;49.378;8.686;2023-01-04T04:05:41;14.73;;;11.30;;
25479;SDS011;13393;49.378;8.686;2023-01-04T04:08:26;13.15;;;9.75;;
25479;SDS011;13393;49.378;8.686;2023-01-04T04:10:53;17.30;;;13.00;;
25479;SDS011;13393;49.378;8.686;2023-01-04T04:13:20;18.90;;;14.35;;
25479;SDS011;13393;49.378;8.686;2023-01-04T04:15:46;19.50;;;14.80;;
25479;SDS011;13393;49.378;8.686;2023-01-04T04:18:13;24.23;;;21.63;;
25479;SDS011;13393;49.378;8.686;2023-01-04T04:20:39;19.95;;;16.42;;
25479;SDS011;13393;49.378;8.686;2023-01-04T04:23:05;17.17;;;13.20;;
25479;SDS011;13393;49.378;8.686;2023-01-04T04:25:33;19.15;;;13.90;;
25479;SDS011;13393;49.378;8.686;2023-01-04T04:27:59;17.73;;;13.15;;
25479;SDS011;13393;49.378;8.686;2023-01-04T04:30:26;17.67;;;12.45;;
25479;SDS011;13393;49.378;8.686;2023-01-04T04:32:52;17.70;;;12.55;;
25479;SDS011;13393;49.378;8.686;2023-01-04T04:35:18;16.35;;;12.20;;
25479;SDS011;13393;49.378;8.686;2023-01-04T04:37:45;19.60;;;12.35;;
25479;SDS011;13393;49.378;8.686;2023-01-04T04:40:11;18.48;;;13.80;;
25479;SDS011;13393;49.378;8.686;2023-01-04T04:43:03;16.10;;;12.13;;
25479;SDS011;13393;49.378;8.686;2023-01-04T04:45:31;15.45;;;11.70;;
25479;SDS011;13393;49.378;8.686;2023-01-04T04:47:57;12.68;;;10.60;;
25479;SDS011;13393;49.378;8.686;2023-01-04T04:50:24;15.57;;;11.50;;
25479;SDS011;13393;49.378;8.686;2023-01-04T04:52:50;16.05;;;10.55;;
25479;SDS011;13393;49.378;8.686;2023-01-04T04:55:17;16.38;;;11.10;;
25479;SDS011;13393;49.378;8.686;2023-01-04T04:57:43;15.70;;;11.15;;
25479;SDS011;13393;49.378;8.686;2023-01-04T05:00:12;13.35;;;10.02;;
25479;SDS011;13393;49.378;8.686;2023-01-04T05:02:38;14.50;;;10.88;;
25479;SDS011;13393;49.378;8.686;2023-01-04T05:05:05;14.93;;;11.77;;
25479;SDS011;13393;49.378;8.686;2023-01-04T05:07:31;14.63;;;11.10;;
25479;SDS011;13393;49.378;8.686;2023-01-04T05:09:58;16.83;;;11.60;;
25479;SDS011;13393;49.378;8.686;2023-01-04T05:12:24;17.02;;;11.30;;
25479;SDS011;13393;49.378;8.686;2023-01-04T05:15:09;16.30;;;11.57;;
25479;SDS011;13393;49.378;8.686;2023-01-04T05:17:36;16.73;;;11.68;;
25479;SDS011;13393;49.378;8.686;2023-01-04T05:20:03;15.88;;;11.52;;
25479;SDS011;13393;49.378;8.686;2023-01-04T05:22:29;15.93;;;11.70;;
25479;SDS011;13393;49.378;8.686;2023-01-04T05:24:56;16.27;;;11.88;;
25479;SDS011;13393;49.378;8.686;2023-01-04T05:27:22;16.42;;;12.40;;
25479;SDS011;13393;49.378;8.686;2023-01-04T05:29:48;14.32;;;10.85;;
25479;SDS011;13393;49.378;8.686;2023-01-04T05:32:32;14.70;;;11.52;;
25479;SDS011;13393;49.378;8.686;2023-01-04T05:35:00;13.45;;;10.55;;
25479;SDS011;13393;49.378;8.686;2023-01-04T05:37:26;15.65;;;11.30;;
25479;SDS011;13393;49.378;8.686;2023-01-04T05:39:52;15.95;;;11.45;;
25479;SDS011;13393;49.378;8.686;2023-01-04T05:42:19;15.65;;;11.30;;
25479;SDS011;13393;49.378;8.686;2023-01-04T05:44:52;17.00;;;11.15;;
25479;SDS011;13393;49.378;8.686;2023-01-04T05:47:18;17.30;;;10.85;;
25479;SDS011;13393;49.378;8.686;2023-01-04T05:49:45;14.85;;;10.45;;
25479;SDS011;13393;49.378;8.686;2023-01-04T05:52:12;18.23;;;11.95;;
25479;SDS011;13393;49.378;8.686;2023-01-04T05:54:39;15.85;;;11.57;;
25479;SDS011;13393;49.378;8.686;2023-01-04T05:57:05;16.17;;;11.27;;
25479;SDS011;13393;49.378;8.686;2023-01-04T05:59:32;16.10;;;11.23;;
25479;SDS011;13393;49.378;8.686;2023-01-04T06:01:58;14.48;;;10.57;;
25479;SDS011;13393;49.378;8.686;2023-01-04T06:04:24;13.68;;;10.80;;
25479;SDS011;13393;49.378;8.686;2023-01-04T06:06:51;12.85;;;9.90;;
25479;SDS011;13393;49.378;8.686;2023-01-04T06:09:18;17.40;;;10.98;;
25479;SDS011;13393;49.378;8.686;2023-01-04T06:11:45;14.98;;;10.40;;
25479;SDS011;13393;49.378;8.686;2023-01-04T06:14:11;14.55;;;10.15;;
25479;SDS011;13393;49.378;8.686;2023-01-04T06:16:37;13.20;;;9.73;;
25479;SDS011;13393;49.378;8.686;2023-01-04T06:19:04;12.63;;;9.50;;
25479;SDS011;13393;49.378;8.686;2023-01-04T06:21:30;13.10;;;9.15;;
25479;SDS011;13393;49.378;8.686;2023-01-04T06:23:56;13.93;;;9.35;;
25479;SDS011;13393;49.378;8.686;2023-01-04T06:26:24;12.98;;;9.02;;
25479;SDS011;13393;49.378;8.686;2023-01-04T06:28:50;11.98;;;8.95;;
25479;SDS011;13393;49.378;8.686;2023-01-04T06:31:17;13.10;;;8.02;;
25479;SDS011;13393;49.378;8.686;2023-01-04T06:33:43;12.38;;;8.32;;
25479;SDS011;13393;49.378;8.686;2023-01-04T06:36:09;11.20;;;8.02;;
25479;SDS011;13393;49.378;8.686;2023-01-04T06:38:36;11.60;;;8.10;;
25479;SDS011;13393;49.378;8.686;2023-01-04T06:41:02;9.85;;;7.85;;
25479;SDS011;13393;49.378;8.686;2023-01-04T06:43:30;12.23;;;7.30;;
25479;SDS011;13393;49.378;8.686;2023-01-04T06:45:56;8.63;;;6.53;;
25479;SDS011;13393;49.378;8.686;2023-01-04T06:48:25;8.95;;;6.55;;
25479;SDS011;13393;49.378;8.686;2023-01-04T06:50:51;8.40;;;6.20;;
25479;SDS011;13393;49.378;8.686;2023-01-04T06:53:18;7.57;;;6.22;;
25479;SDS011;13393;49.378;8.686;2023-01-04T06:55:44;8.13;;;5.50;;
25479;SDS011;13393;49.378;8.686;2023-01-04T06:58:11;5.80;;;5.07;;
25479;SDS011;13393;49.378;8.686;2023-01-04T07:00:39;6.15;;;4.97;;
25479;SDS011;13393;49.378;8.686;2023-01-04T07:03:05;7.57;;;5.38;;
25479;SDS011;13393;49.378;8.686;2023-01-04T07:05:31;8.60;;;4.72;;
25479;SDS011;13393;49.378;8.686;2023-01-04T07:07:58;7.80;;;4.88;;
25479;SDS011;13393;49.378;8.686;2023-01-04T07:10:25;8.18;;;5.05;;
25479;SDS011;13393;49.378;8.686;2023-01-04T07:12:51;7.55;;;5.03;;
25479;SDS011;13393;49.378;8.686;2023-01-04T07:15:17;8.80;;;4.85;;
25479;SDS011;13393;49.378;8.686;2023-01-04T07:17:47;7.05;;;4.80;;
25479;SDS011;13393;49.378;8.686;2023-01-04T07:20:13;7.35;;;5.00;;
25479;SDS011;13393;49.378;8.686;2023-01-04T07:22:40;5.55;;;4.50;;
25479;SDS011;13393;49.378;8.686;2023-01-04T07:25:07;6.55;;;4.63;;
25479;SDS011;13393;49.378;8.686;2023-01-04T07:27:33;8.60;;;4.88;;
25479;SDS011;13393;49.378;8.686;2023-01-04T07:30:00;5.38;;;4.60;;
25479;SDS011;13393;49.378;8.686;2023-01-04T07:32:26;6.00;;;4.32;;
25479;SDS011;13393;49.378;8.686;2023-01-04T07:34:54;6.05;;;4.28;;
25479;SDS011;13393;49.378;8.686;2023-01-04T07:37:21;6.43;;;4.47;;
25479;SDS011;13393;49.378;8.686;2023-01-04T07:39:47;6.45;;;4.35;;
25479;SDS011;13393;49.378;8.686;2023-01-04T07:42:13;5.78;;;4.10;;
25479;SDS011;13393;49.378;8.686;2023-01-04T07:44:40;5.28;;;3.85;;
25479;SDS011;13393;49.378;8.686;2023-01-04T07:47:06;4.75;;;3.53;;
25479;SDS011;13393;49.378;8.686;2023-01-04T07:49:33;5.57;;;3.92;;
25479;SDS011;13393;49.378;8.686;2023-01-04T07:52:00;8.60;;;5.22;;
25479;SDS011;13393;49.378;8.686;2023-01-04T07:54:27;6.53;;;3.88;;
25479;SDS011;13393;49.378;8.686;2023-01-04T07:56:53;6.88;;;3.45;;
25479;SDS011;13393;49.378;8.686;2023-01-04T07:59:20;4.20;;;3.25;;
25479;SDS011;13393;49.378;8.686;2023-01-04T08:01:47;4.03;;;3.50;;
25479;SDS011;13393;49.378;8.686;2023-01-04T08:04:14;4.05;;;3.33;;
25479;SDS011;13393;49.378;8.686;2023-01-04T08:06:41;4.88;;;3.53;;
25479;SDS011;13393;49.378;8.686;2023-01-04T08:09:10;4.45;;;3.08;;
25479;SDS011;13393;49.378;8.686;2023-01-04T08:11:36;6.88;;;3.92;;
25479;SDS011;13393;49.378;8.686;2023-01-04T08:14:03;4.70;;;3.25;;
25479;SDS011;13393;49.378;8.686;2023-01-04T08:16:30;3.70;;;2.97;;
25479;SDS011;13393;49.378;8.686;2023-01-04T08:18:57;4.30;;;2.80;;
25479;SDS011;13393;49.378;8.686;2023-01-04T08:21:25;3.35;;;2.50;;
25479;SDS011;13393;49.378;8.686;2023-01-04T08:23:52;4.32;;;2.90;;
25479;SDS011;13393;49.378;8.686;2023-01-04T08:26:19;5.10;;;2.92;;
25479;SDS011;13393;49.378;8.686;2023-01-04T08:28:46;3.10;;;2.50;;
25479;SDS011;13393;49.378;8.686;2023-01-04T08:31:14;3.85;;;2.22;;
25479;SDS011;13393;49.378;8.686;2023-01-04T08:33:40;4.35;;;2.38;;
25479;SDS011;13393;49.378;8.686;2023-01-04T08:36:07;3.65;;;2.15;;
25479;SDS011;13393;49.378;8.686;2023-01-04T08:38:34;3.13;;;2.63;;
25479;SDS011;13393;49.378;8.686;2023-01-04T08:41:01;4.03;;;2.58;;
25479;SDS011;13393;49.378;8.686;2023-01-04T08:43:28;4.00;;;2.20;;
25479;SDS011;13393;49.378;8.686;2023-01-04T08:45:55;4.47;;;2.55;;
25479;SDS011;13393;49.378;8.686;2023-01-04T08:48:21;3.63;;;2.50;;
25479;SDS011;13393;49.378;8.686;2023-01-04T08:50:48;3.80;;;2.15;;
25479;SDS011;13393;49.378;8.686;2023-01-04T08:53:14;4.57;;;2.15;;
25479;SDS011;13393;49.378;8.686;2023-01-04T08:55:47;2.45;;;1.85;;
25479;SDS011;13393;49.378;8.686;2023-01-04T08:58:13;5.57;;;1.98;;
25479;SDS011;13393;49.378;8.686;2023-01-04T09:00:41;3.42;;;2.40;;
25479;SDS011;13393;49.378;8.686;2023-01-04T09:03:07;3.10;;;2.15;;
25479;SDS011;13393;49.378;8.686;2023-01-04T09:05:34;4.28;;;1.98;;
25479;SDS011;13393;49.378;8.686;2023-01-04T09:08:00;2.00;;;1.80;;
25479;SDS011;13393;49.378;8.686;2023-01-04T09:10:27;2.53;;;1.90;;
25479;SDS011;13393;49.378;8.686;2023-01-04T09:12:53;3.97;;;2.00;;
25479;SDS011;13393;49.378;8.686;2023-01-04T09:15:20;3.65;;;1.83;;
25479;SDS011;13393;49.378;8.686;2023-01-04T09:17:50;2.10;;;1.80;;
25479;SDS011;13393;49.378;8.686;2023-01-04T09:20:17;5.70;;;1.60;;
25479;SDS011;13393;49.378;8.686;2023-01-04T09:22:44;2.05;;;1.70;;
25479;SDS011;13393;49.378;8.686;2023-01-04T09:25:10;3.40;;;1.60;;
25479;SDS011;13393;49.378;8.686;2023-01-04T09:27:37;2.05;;;1.42;;
25479;SDS011;13393;49.378;8.686;2023-01-04T09:30:04;2.45;;;1.80;;
25479;SDS011;13393;49.378;8.686;2023-01-04T09:32:30;3.40;;;1.60;;
25479;SDS011;13393;49.378;8.686;2023-01-04T09:34:58;5.47;;;1.67;;
25479;SDS011;13393;49.378;8.686;2023-01-04T09:37:25;3.17;;;1.40;;
25479;SDS011;13393;49.378;8.686;2023-01-04T09:39:51;5.70;;;2.53;;
25479;SDS011;13393;49.378;8.686;2023-01-04T09:42:19;1.90;;;1.38;;
25479;SDS011;13393;49.378;8.686;2023-01-04T09:44:48;1.38;;;1.10;;
25479;SDS011;13393;49.378;8.686;2023-01-04T09:47:16;1.75;;;1.20;;
25479;SDS011;13393;49.378;8.686;2023-01-04T09:49:45;2.67;;;1.15;;
25479;SDS011;13393;49.378;8.686;2023-01-04T09:52:15;1.35;;;1.05;;
25479;SDS011;13393;49.378;8.686;2023-01-04T09:54:44;1.70;;;1.15;;
25479;SDS011;13393;49.378;8.686;2023-01-04T09:57:15;3.63;;;1.13;;
25479;SDS011;13393;49.378;8.686;2023-01-04T09:59:42;2.60;;;1.02;;
25479;SDS011;13393;49.378;8.686;2023-01-04T10:02:10;3.55;;;1.17;;
25479;SDS011;13393;49.378;8.686;2023-01-04T10:04:40;1.13;;;0.80;;
25479;SDS011;13393;49.378;8.686;2023-01-04T10:07:10;1.70;;;1.17;;
25479;SDS011;13393;49.378;8.686;2023-01-04T10:09:40;3.55;;;1.23;;
25479;SDS011;13393;49.378;8.686;2023-01-04T10:12:09;2.13;;;1.17;;
25479;SDS011;13393;49.378;8.686;2023-01-04T10:14:42;1.60;;;1.25;;
25479;SDS011;13393;49.378;8.686;2023-01-04T10:17:14;1.20;;;1.10;;
25479;SDS011;13393;49.378;8.686;2023-01-04T10:19:55;1.52;;;0.90;;
25479;SDS011;13393;49.378;8.686;2023-01-04T10:22:26;2.60;;;1.10;;
25479;SDS011;13393;49.378;8.686;2023-01-04T10:24:59;1.17;;;0.98;;
25479;SDS011;13393;49.378;8.686;2023-01-04T10:27:35;2.22;;;1.00;;
25479;SDS011;13393;49.378;8.686;2023-01-04T10:30:12;3.40;;;1.00;;
25479;SDS011;13393;49.378;8.686;2023-01-04T10:32:42;1.10;;;0.90;;
25479;SDS011;13393;49.378;8.686;2023-01-04T10:35:16;1.65;;;1.02;;
25479;SDS011;13393;49.378;8.686;2023-01-04T10:37:43;4.22;;;1.02;;
25479;SDS011;13393;49.378;8.686;2023-01-04T10:40:14;4.50;;;1.00;;
25479;SDS011;13393;49.378;8.686;2023-01-04T10:42:42;3.25;;;1.00;;
25479;SDS011;13393;49.378;8.686;2023-01-04T10:45:12;2.20;;;1.15;;
25479;SDS011;13393;49.378;8.686;2023-01-04T10:47:41;2.05;;;1.05;;
25479;SDS011;13393;49.378;8.686;2023-01-04T10:50:12;1.65;;;1.13;;
25479;SDS011;13393;49.378;8.686;2023-01-04T10:52:41;3.33;;;1.10;;
25479;SDS011;13393;49.378;8.686;2023-01-04T10:55:09;3.20;;;1.30;;
25479;SDS011;13393;49.378;8.686;2023-01-04T10:57:39;2.47;;;1.05;;
25479;SDS011;13393;49.378;8.686;2023-01-04T11:00:10;1.20;;;0.90;;
25479;SDS011;13393;49.378;8.686;2023-01-04T11:02:39;1.33;;;0.95;;
25479;SDS011;13393;49.378;8.686;2023-01-04T11:05:09;2.25;;;1.00;;
25479;SDS011;13393;49.378;8.686;2023-01-04T11:07:38;1.40;;;0.98;;
25479;SDS011;13393;49.378;8.686;2023-01-04T11:10:06;2.75;;;1.30;;
25479;SDS011;13393;49.378;8.686;2023-01-04T11:12:34;1.85;;;1.15;;
25479;SDS011;13393;49.378;8.686;2023-01-04T11:15:02;2.75;;;1.60;;
25479;SDS011;13393;49.378;8.686;2023-01-04T11:17:28;3.03;;;1.10;;
25479;SDS011;13393;49.378;8.686;2023-01-04T11:19:55;2.47;;;1.00;;
25479;SDS011;13393;49.378;8.686;2023-01-04T11:22:23;1.42;;;1.20;;
25479;SDS011;13393;49.378;8.686;2023-01-04T11:24:51;3.47;;;1.42;;
25479;SDS011;13393;49.378;8.686;2023-01-04T11:27:19;2.67;;;1.52;;
25479;SDS011;13393;49.378;8.686;2023-01-04T11:29:48;3.70;;;1.50;;
25479;SDS011;13393;49.378;8.686;2023-01-04T11:32:18;3.78;;;1.17;;
25479;SDS011;13393;49.378;8.686;2023-01-04T11:34:47;2.53;;;1.10;;
25479;SDS011;13393;49.378;8.686;2023-01-04T11:37:23;0.93;;;0.90;;
25479;SDS011;13393;49.378;8.686;2023-01-04T11:39:50;1.10;;;1.00;;
25479;SDS011;13393;49.378;8.686;2023-01-04T11:42:18;3.08;;;1.05;;
25479;SDS011;13393;49.378;8.686;2023-01-04T11:44:47;3.00;;;1.25;;
25479;SDS011;13393;49.378;8.686;2023-01-04T11:47:24;1.77;;;1.20;;
25479;SDS011;13393;49.378;8.686;2023-01-04T11:49:52;1.48;;;1.00;;
25479;SDS011;13393;49.378;8.686;2023-01-04T11:52:28;2.47;;;1.10;;
25479;SDS011;13393;49.378;8.686;2023-01-04T11:54:55;4.70;;;1.50;;
25479;SDS011;13393;49.378;8.686;2023-01-04T11:57:21;2.42;;;1.30;;
25479;SDS011;13393;49.378;8.686;2023-01-04T11:59:52;1.95;;;1.33;;
25479;SDS011;13393;49.378;8.686;2023-01-04T12:02:34;3.83;;;1.35;;
25479;SDS011;13393;49.378;8.686;2023-01-04T12:05:00;2.03;;;1.10;;
25479;SDS011;13393;49.378;8.686;2023-01-04T12:07:28;3.75;;;1.23;;
25479;SDS011;13393;49.378;8.686;2023-01-04T12:09:55;2.97;;;1.40;;
25479;SDS011;13393;49.378;8.686;2023-01-04T12:12:23;3.08;;;1.20;;
25479;SDS011;13393;49.378;8.686;2023-01-04T12:14:52;2.53;;;1.20;;
25479;SDS011;13393;49.378;8.686;2023-01-04T12:17:20;1.40;;;1.20;;
25479;SDS011;13393;49.378;8.686;2023-01-04T12:19:49;1.17;;;1.08;;
25479;SDS011;13393;49.378;8.686;2023-01-04T12:22:19;2.30;;;1.27;;
25479;SDS011;13393;49.378;8.686;2023-01-04T12:24:47;3.85;;;1.85;;
25479;SDS011;13393;49.378;8.686;2023-01-04T12:27:13;1.13;;;1.02;;
25479;SDS011;13393;49.378;8.686;2023-01-04T12:29:41;3.78;;;1.63;;
25479;SDS011;13393;49.378;8.686;2023-01-04T12:34:55;3.45;;;1.33;;
25479;SDS011;13393;49.378;8.686;2023-01-04T12:45:32;2.17;;;1.33;;
25479;SDS011;13393;49.378;8.686;2023-01-04T12:48:30;2.78;;;1.20;;
25479;SDS011;13393;49.378;8.686;2023-01-04T12:53:51;1.85;;;1.40;;
25479;SDS011;13393;49.378;8.686;2023-01-04T12:56:17;5.22;;;1.35;;
25479;SDS011;13393;49.378;8.686;2023-01-04T13:01:31;2.30;;;1.23;;
25479;SDS011;13393;49.378;8.686;2023-01-04T13:03:58;1.80;;;1.00;;
25479;SDS011;13393;49.378;8.686;2023-01-04T13:06:26;2.65;;;1.23;;
25479;SDS011;13393;49.378;8.686;2023-01-04T13:08:55;3.38;;;1.45;;
25479;SDS011;13393;49.378;8.686;2023-01-04T13:11:30;2.10;;;1.17;;
25479;SDS011;13393;49.378;8.686;2023-01-04T13:13:59;2.83;;;1.42;;
25479;SDS011;13393;49.378;8.686;2023-01-04T13:16:29;2.95;;;1.33;;
25479;SDS011;13393;49.378;8.686;2023-01-04T13:18:57;2.20;;;1.20;;
25479;SDS011;13393;49.378;8.686;2023-01-04T13:21:25;2.75;;;1.40;;
25479;SDS011;13393;49.378;8.686;2023-01-04T13:23:54;2.83;;;1.20;;
25479;SDS011;13393;49.378;8.686;2023-01-04T13:26:31;1.45;;;1.10;;
25479;SDS011;13393;49.378;8.686;2023-01-04T13:31:52;1.02;;;0.93;;
25479;SDS011;13393;49.378;8.686;2023-01-04T13:34:20;1.90;;;1.15;;
25479;SDS011;13393;49.378;8.686;2023-01-04T13:37:02;2.17;;;1.40;;
25479;SDS011;13393;49.378;8.686;2023-01-04T13:39:29;1.83;;;1.17;;
25479;SDS011;13393;49.378;8.686;2023-01-04T13:41:57;1.00;;;0.90;;
25479;SDS011;13393;49.378;8.686;2023-01-04T13:44:27;1.77;;;1.50;;
25479;SDS011;13393;49.378;8.686;2023-01-04T13:46:55;3.47;;;1.23;;
25479;SDS011;13393;49.378;8.686;2023-01-04T13:49:22;2.33;;;1.20;;
25479;SDS011;13393;49.378;8.686;2023-01-04T13:51:48;1.52;;;1.02;;
25479;SDS011;13393;49.378;8.686;2023-01-04T13:54:18;1.63;;;1.40;;
25479;SDS011;13393;49.378;8.686;2023-01-04T13:56:45;3.58;;;1.23;;
25479;SDS011;13393;49.378;8.686;2023-01-04T13:59:12;2.58;;;1.00;;
25479;SDS011;13393;49.378;8.686;2023-01-04T14:01:40;2.20;;;1.05;;
25479;SDS011;13393;49.378;8.686;2023-01-04T14:04:12;3.60;;;1.02;;
25479;SDS011;13393;49.378;8.686;2023-01-04T14:06:40;1.25;;;1.10;;
25479;SDS011;13393;49.378;8.686;2023-01-04T14:09:12;1.00;;;0.82;;
25479;SDS011;13393;49.378;8.686;2023-01-04T14:11:40;1.75;;;1.08;;
25479;SDS011;13393;49.378;8.686;2023-01-04T14:14:29;0.98;;;0.95;;
25479;SDS011;13393;49.378;8.686;2023-01-04T14:19:53;2.33;;;1.27;;
25479;SDS011;13393;49.378;8.686;2023-01-04T14:22:33;4.20;;;1.30;;
25479;SDS011;13393;49.378;8.686;2023-01-04T14:25:00;3.28;;;1.52;;
25479;SDS011;13393;49.378;8.686;2023-01-04T14:27:33;1.10;;;1.00;;
25479;SDS011;13393;49.378;8.686;2023-01-04T14:30:01;1.92;;;1.30;;
25479;SDS011;13393;49.378;8.686;2023-01-04T14:32:38;3.17;;;1.13;;
25479;SDS011;13393;49.378;8.686;2023-01-04T14:35:05;1.25;;;1.10;;
25479;SDS011;13393;49.378;8.686;2023-01-04T14:37:35;2.45;;;1.20;;
25479;SDS011;13393;49.378;8.686;2023-01-04T14:40:06;1.95;;;1.27;;
25479;SDS011;13393;49.378;8.686;2023-01-04T14:42:38;3.13;;;1.55;;
25479;SDS011;13393;49.378;8.686;2023-01-04T14:45:10;3.35;;;1.25;;
25479;SDS011;13393;49.378;8.686;2023-01-04T14:47:37;4.13;;;1.20;;
25479;SDS011;13393;49.378;8.686;2023-01-04T14:50:03;3.80;;;1.33;;
25479;SDS011;13393;49.378;8.686;2023-01-04T14:52:30;1.33;;;1.10;;
25479;SDS011;13393;49.378;8.686;2023-01-04T14:54:56;1.70;;;1.17;;
25479;SDS011;13393;49.378;8.686;2023-01-04T14:57:23;1.77;;;0.95;;
25479;SDS011;13393;49.378;8.686;2023-01-04T14:59:49;1.80;;;1.30;;
25479;SDS011;13393;49.378;8.686;2023-01-04T15:02:17;1.10;;;1.00;;
25479;SDS011;13393;49.378;8.686;2023-01-04T15:04:44;1.65;;;1.10;;
25479;SDS011;13393;49.378;8.686;2023-01-04T15:07:22;1.88;;;1.10;;
25479;SDS011;13393;49.378;8.686;2023-01-04T15:09:49;1.27;;;1.05;;
25479;SDS011;13393;49.378;8.686;2023-01-04T15:12:15;4.13;;;1.00;;
25479;SDS011;13393;49.378;8.686;2023-01-04T15:14:42;2.20;;;1.33;;
25479;SDS011;13393;49.378;8.686;2023-01-04T15:17:08;1.02;;;0.90;;
25479;SDS011;13393;49.378;8.686;2023-01-04T15:19:39;1.27;;;1.05;;
25479;SDS011;13393;49.378;8.686;2023-01-04T15:22:05;1.55;;;1.00;;
25479;SDS011;13393;49.378;8.686;2023-01-04T15:24:31;2.88;;;1.10;;
25479;SDS011;13393;49.378;8.686;2023-01-04T15:26:58;1.55;;;1.00;;